Time;durP1;ratioP1;P1;durP2;ratioP2;P2;SDS_P1;SDS_P2;PMS_P1;PMS_P2;Temp;Humidity;BMP_temperature;BMP_pressure;BME280_temperature;BME280_humidity;BME280_pressure;Samples;Min_cycle;Max_cycle;Signal;HPM_P1;HPM_P2
2024/02/10 00:00:36;;;;;;;10.23;9.03;;;9.40;1.00;;;;;;5136928;27;20428;-40
2024/02/10 00:03:02;;;;;;;10.37;9.27;;;9.40;1.00;;;;;;5136276;27;20420;-42
2024/02/10 00:05:28;;;;;;;11.30;10.20;;;9.50;1.00;;;;;;5136909;27;20424;-42
2024/02/10 00:07:57;;;;;;;11.87;9.87;;;9.50;1.00;;;;;;5137182;27;20460;-45
2024/02/10 00:10:24;;;;;;;11.37;9.57;;;9.40;1.00;;;;;;5137275;27;20719;-43
2024/02/10 00:13:00;;;;;;;11.53;10.33;;;9.40;1.00;;;;;;5119157;27;20417;-42
2024/02/10 00:15:27;;;;;;;10.63;9.60;;;9.40;1.00;;;;;;5136934;27;20501;-40
2024/02/10 00:17:53;;;;;;;10.67;8.97;;;9.40;1.00;;;;;;5136909;27;20503;-42
2024/02/10 00:20:20;;;;;;;10.43;9.43;;;9.40;1.00;;;;;;5136532;27;20523;-41
2024/02/10 00:22:49;;;;;;;10.87;9.77;;;9.40;1.00;;;;;;5136472;27;20444;-42
2024/02/10 00:25:15;;;;;;;10.70;9.10;;;9.40;1.00;;;;;;5138106;27;20983;-42
2024/02/10 00:27:46;;;;;;;10.40;9.40;;;9.40;1.00;;;;;;5137776;27;20462;-40
2024/02/10 00:30:13;;;;;;;11.33;10.13;;;9.40;1.00;;;;;;5138673;27;20179;-41
2024/02/10 00:32:39;;;;;;;12.07;10.87;;;9.40;1.00;;;;;;5138756;27;20466;-43
2024/02/10 00:35:06;;;;;;;12.47;11.27;;;9.40;1.00;;;;;;5138862;27;20420;-43
2024/02/10 00:37:31;;;;;;;15.43;11.17;;;9.40;1.00;;;;;;5138346;27;20425;-42
2024/02/10 00:39:58;;;;;;;16.50;11.07;;;9.40;1.00;;;;;;5138625;27;20660;-42
2024/02/10 00:42:27;;;;;;;11.13;10.10;;;9.40;1.00;;;;;;5138979;27;20179;-42
2024/02/10 00:44:54;;;;;;;11.90;10.70;;;9.40;1.00;;;;;;5136974;27;20507;-42
2024/02/10 00:47:20;;;;;;;12.30;11.00;;;9.40;1.00;;;;;;5137076;27;20542;-42
2024/02/10 00:49:48;;;;;;;12.60;11.27;;;9.40;1.00;;;;;;5137233;27;20412;-40
2024/02/10 00:52:17;;;;;;;13.73;11.00;;;9.40;1.00;;;;;;5137278;27;20478;-40
2024/02/10 00:54:45;;;;;;;13.27;11.93;;;9.50;1.00;;;;;;5135425;27;20431;-41
2024/02/10 00:57:11;;;;;;;13.40;11.17;;;9.50;1.00;;;;;;5137338;27;20471;-41
2024/02/10 00:59:41;;;;;;;12.20;11.00;;;9.40;1.00;;;;;;5136283;27;20988;-42
2024/02/10 01:02:17;;;;;;;12.50;10.80;;;9.50;1.00;;;;;;5135043;27;20493;-43
2024/02/10 01:04:46;;;;;;;13.43;11.37;;;9.50;1.00;;;;;;5136294;27;20417;-41
2024/02/10 01:07:14;;;;;;;12.30;10.90;;;9.50;1.00;;;;;;5136489;27;20509;-41
2024/02/10 01:09:46;;;;;;;12.03;10.87;;;9.50;1.00;;;;;;5136511;27;20428;-40
2024/02/10 01:12:12;;;;;;;12.67;11.37;;;9.50;1.00;;;;;;5136219;27;20721;-41
2024/02/10 01:14:40;;;;;;;13.40;12.10;;;9.50;1.00;;;;;;5136365;27;20423;-41
2024/02/10 01:17:10;;;;;;;12.83;11.73;;;9.50;1.00;;;;;;5136439;27;20435;-43
2024/02/10 01:19:39;;;;;;;12.20;11.00;;;9.50;1.00;;;;;;5135874;27;20485;-41
2024/02/10 01:22:05;;;;;;;11.63;10.43;;;9.50;1.00;;;;;;5135430;27;20416;-41
2024/02/10 01:24:31;;;;;;;11.23;10.10;;;9.50;1.00;;;;;;5135107;27;20808;-42
2024/02/10 01:26:57;;;;;;;10.60;9.50;;;9.50;1.00;;;;;;5135404;27;20408;-42
2024/02/10 01:29:24;;;;;;;11.50;10.13;;;9.50;1.00;;;;;;5136599;27;20171;-39
2024/02/10 01:31:50;;;;;;;12.67;11.47;;;9.50;1.00;;;;;;5136099;28;20171;-42
2024/02/10 01:34:17;;;;;;;11.00;9.90;;;9.50;1.00;;;;;;5137109;27;20421;-44
2024/02/10 01:36:44;;;;;;;12.13;10.93;;;9.50;1.00;;;;;;5137203;27;20424;-41
2024/02/10 01:39:10;;;;;;;11.80;10.13;;;9.50;1.00;;;;;;5137124;27;20800;-42
2024/02/10 01:41:35;;;;;;;12.57;11.27;;;9.50;1.00;;;;;;5137269;27;20432;-41
2024/02/10 01:44:01;;;;;;;10.07;9.00;;;9.50;1.00;;;;;;5137150;27;20565;-39
2024/02/10 01:46:27;;;;;;;10.67;9.57;;;9.50;1.00;;;;;;5137272;27;20183;-42
2024/02/10 01:48:55;;;;;;;10.63;9.60;;;9.50;1.00;;;;;;5137309;27;20198;-40
2024/02/10 01:51:23;;;;;;;10.60;9.60;;;9.50;1.00;;;;;;5135611;28;20178;-43
2024/02/10 01:53:50;;;;;;;9.80;7.70;;;9.50;1.00;;;;;;5137120;27;20436;-43
2024/02/10 01:56:16;;;;;;;8.40;7.60;;;9.50;1.00;;;;;;5136212;27;20409;-41
2024/02/10 01:58:45;;;;;;;8.03;7.23;;;9.50;1.00;;;;;;5136884;27;20505;-43
2024/02/10 02:01:11;;;;;;;7.60;6.90;;;9.50;1.00;;;;;;5133761;28;20433;-39
2024/02/10 02:03:42;;;;;;;7.50;6.83;;;9.40;1.00;;;;;;5134957;28;20428;-45
2024/02/10 02:06:10;;;;;;;7.83;6.40;;;9.40;1.00;;;;;;5139327;27;20435;-42
2024/02/10 02:08:37;;;;;;;7.83;5.97;;;9.40;1.00;;;;;;5139624;27;20546;-42
2024/02/10 02:11:03;;;;;;;6.13;5.53;;;9.40;1.00;;;;;;5139689;27;20428;-41
2024/02/10 02:13:29;;;;;;;9.83;6.30;;;9.40;1.00;;;;;;5141210;27;20425;-41
2024/02/10 02:15:57;;;;;;;7.73;6.20;;;9.40;1.00;;;;;;5140587;27;20232;-41
2024/02/10 02:18:23;;;;;;;6.37;5.77;;;9.40;1.00;;;;;;5139798;27;20428;-39
2024/02/10 02:20:49;;;;;;;8.47;6.90;;;9.40;1.00;;;;;;5140218;27;20748;-41
2024/02/10 02:23:18;;;;;;;7.93;7.00;;;9.40;1.00;;;;;;5138603;27;20612;-43
2024/02/10 02:25:51;;;;;;;7.67;7.00;;;9.40;1.00;;;;;;5139434;27;20416;-41
2024/02/10 02:28:17;;;;;;;8.63;7.67;;;9.40;1.00;;;;;;5140073;27;20520;-41
2024/02/10 02:30:44;;;;;;;8.00;7.20;;;9.40;1.00;;;;;;5140702;27;20466;-40
2024/02/10 02:33:10;;;;;;;7.97;7.27;;;9.40;1.00;;;;;;5140917;27;20503;-42
2024/02/10 02:35:40;;;;;;;9.17;7.50;;;9.40;1.00;;;;;;5140752;27;20405;-42
2024/02/10 02:38:06;;;;;;;7.40;6.63;;;9.40;1.00;;;;;;5138769;27;20423;-40
2024/02/10 02:40:32;;;;;;;7.00;6.30;;;9.40;1.00;;;;;;5139939;27;20471;-42
2024/02/10 02:43:02;;;;;;;7.70;7.00;;;9.40;1.00;;;;;;5139473;27;20739;-41
2024/02/10 02:45:29;;;;;;;7.67;6.87;;;9.40;1.00;;;;;;5138875;27;20428;-43
2024/02/10 02:48:07;;;;;;;7.20;6.50;;;9.40;1.00;;;;;;5138720;27;20499;-42
2024/02/10 02:50:34;;;;;;;7.13;6.53;;;9.40;1.00;;;;;;5139214;27;20404;-43
2024/02/10 02:53:02;;;;;;;7.80;7.10;;;9.30;1.00;;;;;;5139738;27;20412;-41
2024/02/10 02:55:28;;;;;;;8.00;7.20;;;9.30;1.00;;;;;;5139903;27;20421;-41
2024/02/10 02:57:55;;;;;;;7.63;6.93;;;9.30;1.00;;;;;;5138806;27;20714;-41
2024/02/10 03:00:21;;;;;;;8.43;7.50;;;9.20;1.00;;;;;;5139215;27;20455;-40
2024/02/10 03:02:48;;;;;;;9.07;8.27;;;9.20;1.00;;;;;;5139631;27;20409;-41
2024/02/10 03:05:14;;;;;;;7.77;7.07;;;9.20;1.00;;;;;;5139379;27;20427;-42
2024/02/10 03:07:44;;;;;;;10.10;8.60;;;9.20;1.00;;;;;;5137997;27;20616;-41
2024/02/10 03:10:10;;;;;;;10.03;9.10;;;9.20;1.00;;;;;;5140066;27;20711;-40
2024/02/10 03:12:36;;;;;;;9.80;8.80;;;9.10;1.00;;;;;;5140014;27;20686;-41
2024/02/10 03:15:02;;;;;;;9.37;8.53;;;9.10;1.00;;;;;;5138066;27;20451;-42
2024/02/10 03:17:30;;;;;;;9.90;9.00;;;9.10;1.00;;;;;;5137482;27;20175;-44
2024/02/10 03:20:00;;;;;;;11.07;9.67;;;9.10;1.00;;;;;;5138844;27;20424;-42
2024/02/10 03:22:26;;;;;;;10.97;9.87;;;9.00;1.00;;;;;;5137552;27;20435;-42
2024/02/10 03:24:54;;;;;;;11.03;9.97;;;9.00;1.00;;;;;;5137872;27;20468;-40
2024/02/10 03:28:09;;;;;;;10.87;9.77;;;9.00;1.00;;;;;;5139761;27;20541;-43
2024/02/10 03:30:34;;;;;;;12.30;11.17;;;9.00;1.00;;;;;;5121856;27;20829;-43
2024/02/10 03:33:01;;;;;;;12.80;11.50;;;8.90;1.00;;;;;;5118393;28;20536;-41
2024/02/10 03:35:27;;;;;;;13.20;11.80;;;8.90;1.00;;;;;;5118849;28;20179;-40
2024/02/10 03:37:53;;;;;;;13.20;11.80;;;8.90;1.00;;;;;;5118369;28;20785;-41
2024/02/10 03:40:19;;;;;;;13.60;12.20;;;8.90;1.00;;;;;;5118627;28;20441;-43
2024/02/10 03:42:46;;;;;;;14.37;12.87;;;8.90;1.00;;;;;;5118590;28;20258;-43
2024/02/10 03:45:14;;;;;;;17.10;14.97;;;8.90;1.00;;;;;;5118834;28;20417;-40
2024/02/10 03:47:42;;;;;;;16.63;14.60;;;8.90;1.00;;;;;;5117468;28;21103;-43
2024/02/10 03:50:09;;;;;;;14.37;12.90;;;8.90;1.00;;;;;;5100047;28;20433;-42
2024/02/10 03:52:34;;;;;;;16.07;13.87;;;8.90;1.00;;;;;;5118644;28;20413;-42
2024/02/10 03:55:00;;;;;;;14.97;13.20;;;8.90;1.00;;;;;;5118353;28;20418;-42
2024/02/10 03:57:25;;;;;;;18.70;14.30;;;8.80;1.00;;;;;;5118065;28;20259;-42
2024/02/10 03:59:52;;;;;;;15.50;13.60;;;8.80;1.00;;;;;;5118487;28;20180;-43
2024/02/10 04:02:18;;;;;;;17.10;14.50;;;8.80;1.00;;;;;;5099867;28;20263;-44
2024/02/10 04:04:44;;;;;;;14.30;12.90;;;8.70;1.00;;;;;;5118163;28;20441;-42
2024/02/10 04:07:12;;;;;;;15.27;13.67;;;8.70;1.00;;;;;;5118389;28;20712;-41
2024/02/10 04:09:37;;;;;;;15.27;13.63;;;8.70;1.00;;;;;;5117325;28;20179;-42
2024/02/10 04:12:03;;;;;;;13.77;12.33;;;8.70;1.00;;;;;;5118478;28;20421;-42
2024/02/10 04:14:29;;;;;;;13.40;12.10;;;8.70;1.00;;;;;;5100211;28;20180;-44
2024/02/10 04:16:54;;;;;;;13.67;12.33;;;8.70;1.00;;;;;;5117621;28;20191;-41
2024/02/10 04:19:20;;;;;;;15.20;12.80;;;8.70;1.00;;;;;;5116852;28;20178;-42
2024/02/10 04:21:50;;;;;;;14.00;12.40;;;8.60;1.00;;;;;;5116882;28;20179;-42
2024/02/10 04:24:16;;;;;;;15.03;13.53;;;8.60;1.00;;;;;;5116716;28;20175;-40
2024/02/10 04:26:43;;;;;;;14.53;13.03;;;8.60;1.00;;;;;;5116497;28;20428;-40
2024/02/10 04:29:09;;;;;;;13.60;12.27;;;8.60;1.00;;;;;;5115698;28;20903;-41
2024/02/10 04:31:39;;;;;;;14.13;12.50;;;8.60;1.00;;;;;;5116599;28;20467;-40
2024/02/10 04:34:05;;;;;;;14.87;13.37;;;8.60;1.00;;;;;;5116091;28;20164;-40
2024/02/10 04:36:31;;;;;;;14.80;13.37;;;8.60;1.00;;;;;;5117213;28;20421;-41
2024/02/10 04:38:57;;;;;;;14.00;12.60;;;8.60;1.00;;;;;;5117273;28;20206;-42
2024/02/10 04:41:22;;;;;;;13.80;12.40;;;8.60;1.00;;;;;;5117133;28;20748;-43
2024/02/10 04:43:48;;;;;;;14.63;13.13;;;8.70;1.00;;;;;;5116653;28;20514;-40
2024/02/10 04:46:16;;;;;;;14.83;13.10;;;8.70;1.00;;;;;;5117223;28;20184;-44
2024/02/10 04:48:42;;;;;;;15.20;13.63;;;8.60;1.00;;;;;;5099998;28;20199;-42
2024/02/10 04:51:08;;;;;;;13.03;11.57;;;8.70;1.00;;;;;;5117505;28;20425;-41
2024/02/10 04:53:33;;;;;;;15.53;13.13;;;8.60;1.00;;;;;;5117079;28;20433;-41
2024/02/10 04:55:59;;;;;;;14.17;12.67;;;8.60;1.00;;;;;;5117223;28;20577;-41
2024/02/10 04:58:25;;;;;;;15.83;14.13;;;8.60;1.00;;;;;;5117632;28;20168;-41
2024/02/10 05:00:50;;;;;;;14.40;12.90;;;8.60;1.00;;;;;;5117655;28;20270;-46
2024/02/10 05:03:16;;;;;;;15.53;12.70;;;8.50;1.00;;;;;;5117290;28;20179;-42
2024/02/10 05:05:41;;;;;;;15.33;13.17;;;8.50;1.00;;;;;;5115604;28;20183;-40
2024/02/10 05:08:12;;;;;;;15.87;13.07;;;8.50;1.00;;;;;;5115066;28;20535;-43
2024/02/10 05:10:38;;;;;;;13.80;12.30;;;8.50;1.00;;;;;;5097165;28;20175;-42
2024/02/10 05:13:04;;;;;;;13.33;11.80;;;8.60;1.00;;;;;;5114970;28;20509;-43
2024/02/10 05:15:31;;;;;;;13.90;12.37;;;8.60;1.00;;;;;;5114615;28;20980;-43
2024/02/10 05:17:58;;;;;;;14.40;12.80;;;8.60;1.00;;;;;;5114772;28;20201;-44
2024/02/10 05:20:26;;;;;;;16.30;13.53;;;8.60;1.00;;;;;;5098016;28;20500;-41
2024/02/10 05:22:58;;;;;;;15.73;14.10;;;8.60;1.00;;;;;;5116062;28;20405;-40
2024/02/10 05:25:27;;;;;;;17.00;14.07;;;8.50;1.00;;;;;;5115212;28;20401;-41
2024/02/10 05:27:54;;;;;;;14.83;13.23;;;8.50;1.00;;;;;;5097603;28;20578;-41
2024/02/10 05:30:20;;;;;;;13.00;11.70;;;8.50;1.00;;;;;;5116698;28;20796;-42
2024/02/10 05:32:47;;;;;;;13.40;12.00;;;8.50;1.00;;;;;;5116849;28;20842;-41
2024/02/10 05:35:20;;;;;;;12.90;11.40;;;8.50;1.00;;;;;;5116438;28;20429;-40
2024/02/10 05:37:57;;;;;;;14.67;13.07;;;8.50;1.00;;;;;;5115468;28;20424;-45
2024/02/10 05:40:23;;;;;;;13.80;12.50;;;8.50;1.00;;;;;;5117113;28;20409;-41
2024/02/10 05:42:50;;;;;;;12.93;11.70;;;8.50;1.00;;;;;;5102368;28;20490;-42
2024/02/10 05:45:19;;;;;;;13.27;11.87;;;8.50;1.00;;;;;;5120623;28;20437;-44
2024/02/10 05:47:51;;;;;;;13.77;12.13;;;8.50;1.00;;;;;;5120341;28;20731;-41
2024/02/10 05:50:18;;;;;;;13.73;12.40;;;8.50;1.00;;;;;;5119275;28;20475;-43
2024/02/10 05:52:51;;;;;;;12.97;11.67;;;8.50;1.00;;;;;;5119257;28;20421;-41
2024/02/10 05:55:26;;;;;;;15.87;14.17;;;8.50;1.00;;;;;;5119058;28;20405;-41
2024/02/10 05:58:01;;;;;;;14.77;13.27;;;8.50;1.00;;;;;;5118620;28;20424;-42
2024/02/10 06:00:27;;;;;;;16.93;15.20;;;8.50;1.00;;;;;;5119191;28;20425;-41
2024/02/10 06:02:53;;;;;;;14.70;13.17;;;8.40;1.00;;;;;;5119107;28;20660;-39
2024/02/10 06:05:19;;;;;;;14.43;13.03;;;8.40;1.00;;;;;;5100087;28;20294;-41
2024/02/10 06:07:45;;;;;;;15.13;13.53;;;8.30;1.00;;;;;;5100799;28;20495;-41
2024/02/10 06:10:12;;;;;;;14.47;12.97;;;8.40;1.00;;;;;;5102323;28;20409;-42
2024/02/10 06:12:45;;;;;;;14.13;12.63;;;8.30;1.00;;;;;;5119344;28;20417;-41
2024/02/10 06:15:11;;;;;;;13.63;12.20;;;8.30;1.00;;;;;;5119432;28;20425;-42
2024/02/10 06:17:42;;;;;;;14.17;12.67;;;8.40;1.00;;;;;;5118788;28;20505;-41
2024/02/10 06:20:10;;;;;;;14.50;13.00;;;8.40;1.00;;;;;;5119018;28;20421;-42
2024/02/10 06:22:36;;;;;;;13.93;12.53;;;8.40;1.00;;;;;;5118631;28;20412;-40
2024/02/10 06:25:02;;;;;;;14.50;13.00;;;8.40;1.00;;;;;;5117033;28;20530;-42
2024/02/10 06:27:28;;;;;;;16.27;13.80;;;8.40;1.00;;;;;;5116645;28;20196;-41
2024/02/10 06:29:58;;;;;;;16.53;14.83;;;8.40;1.00;;;;;;5115871;28;20533;-42
2024/02/10 06:32:23;;;;;;;16.70;14.90;;;8.40;1.00;;;;;;5116701;28;20199;-41
2024/02/10 06:34:53;;;;;;;16.60;14.90;;;8.40;1.00;;;;;;5117455;28;20441;-41
2024/02/10 06:37:25;;;;;;;16.00;14.37;;;8.40;1.00;;;;;;5099556;28;20176;-41
2024/02/10 06:39:50;;;;;;;16.70;14.57;;;8.30;1.00;;;;;;5117565;28;20737;-40
2024/02/10 06:42:17;;;;;;;19.80;15.63;;;8.30;1.00;;;;;;5118073;28;20421;-41
2024/02/10 06:44:43;;;;;;;16.67;14.20;;;8.30;1.00;;;;;;5119118;28;20272;-40
2024/02/10 06:47:09;;;;;;;17.00;14.97;;;8.30;1.00;;;;;;5119168;28;20733;-40
2024/02/10 06:49:35;;;;;;;17.47;15.00;;;8.40;1.00;;;;;;5118868;28;20465;-44
2024/02/10 06:52:02;;;;;;;14.43;13.03;;;8.40;1.00;;;;;;5116240;28;20183;-41
2024/02/10 06:54:31;;;;;;;15.00;13.23;;;8.40;1.00;;;;;;5098523;28;20769;-40
2024/02/10 06:56:57;;;;;;;14.93;13.43;;;8.30;1.00;;;;;;5116926;28;20436;-43
2024/02/10 06:59:25;;;;;;;16.20;14.50;;;8.30;1.00;;;;;;5117089;28;20447;-43
2024/02/10 07:01:54;;;;;;;15.80;14.07;;;8.40;1.00;;;;;;5117535;28;20417;-42
2024/02/10 07:04:23;;;;;;;14.93;13.40;;;8.40;1.00;;;;;;5118031;28;20490;-41
2024/02/10 07:06:53;;;;;;;14.60;13.03;;;8.40;1.00;;;;;;5117566;28;20432;-41
2024/02/10 07:09:21;;;;;;;13.93;12.53;;;8.40;1.00;;;;;;5117027;28;20793;-46
2024/02/10 07:11:47;;;;;;;15.87;14.23;;;8.40;1.00;;;;;;5116379;28;20409;-41
2024/02/10 07:14:12;;;;;;;15.90;13.30;;;8.50;1.00;;;;;;5118825;28;20429;-43
2024/02/10 07:16:38;;;;;;;16.20;14.50;;;8.40;1.00;;;;;;5100342;28;20454;-42
2024/02/10 07:19:06;;;;;;;15.70;14.10;;;8.50;1.00;;;;;;5117565;28;20549;-44
2024/02/10 07:21:33;;;;;;;14.13;12.73;;;8.50;1.00;;;;;;5098933;28;20176;-42
2024/02/10 07:24:05;;;;;;;14.13;12.63;;;8.50;1.00;;;;;;5114562;28;20429;-43
2024/02/10 07:26:34;;;;;;;13.20;11.80;;;8.50;1.00;;;;;;5114355;28;20513;-41
2024/02/10 07:29:00;;;;;;;14.30;12.90;;;8.60;1.00;;;;;;5094413;28;20715;-41
2024/02/10 07:31:26;;;;;;;15.20;13.73;;;8.60;1.00;;;;;;5095606;28;20437;-42
2024/02/10 07:33:58;;;;;;;16.03;13.70;;;8.60;1.00;;;;;;5111970;28;20413;-40
2024/02/10 07:36:34;;;;;;;15.53;13.93;;;8.70;1.00;;;;;;5092998;28;20283;-42
2024/02/10 07:39:08;;;;;;;15.90;13.87;;;8.70;1.00;;;;;;5114061;28;20433;-43
2024/02/10 07:41:40;;;;;;;16.10;14.50;;;8.70;1.00;;;;;;5115736;28;20425;-42
2024/02/10 07:44:07;;;;;;;16.60;14.67;;;8.70;1.00;;;;;;5116099;28;20512;-41
2024/02/10 07:46:37;;;;;;;17.07;15.13;;;8.60;1.00;;;;;;5115801;28;20437;-42
2024/02/10 07:49:04;;;;;;;16.00;14.40;;;8.60;1.00;;;;;;5115898;28;20479;-45
2024/02/10 07:51:31;;;;;;;15.00;13.43;;;8.70;1.00;;;;;;5116414;28;20452;-41
2024/02/10 07:53:59;;;;;;;17.17;14.67;;;8.80;1.00;;;;;;5099540;28;20440;-43
2024/02/10 07:56:33;;;;;;;16.23;14.53;;;8.80;1.00;;;;;;5117763;28;20424;-42
2024/02/10 07:58:59;;;;;;;16.10;14.10;;;8.90;1.00;;;;;;5100509;28;20456;-40
2024/02/10 08:01:28;;;;;;;16.67;14.87;;;9.00;1.00;;;;;;5098498;28;20442;-42
2024/02/10 08:03:56;;;;;;;15.80;14.17;;;9.10;1.00;;;;;;5099683;28;20823;-43
2024/02/10 08:06:32;;;;;;;17.20;15.40;;;9.10;1.00;;;;;;5116955;28;20428;-43
2024/02/10 08:08:58;;;;;;;16.63;14.70;;;9.20;1.00;;;;;;5117559;28;20490;-45
2024/02/10 08:11:27;;;;;;;16.97;15.27;;;9.20;1.00;;;;;;5117911;28;20429;-41
2024/02/10 08:13:54;;;;;;;18.90;16.90;;;9.30;1.00;;;;;;5116175;28;20556;-44
2024/02/10 08:16:21;;;;;;;16.20;14.50;;;9.30;1.00;;;;;;5096437;28;20468;-40
2024/02/10 08:18:49;;;;;;;16.40;14.53;;;9.40;1.00;;;;;;5113377;28;20504;-40
2024/02/10 08:21:17;;;;;;;16.50;14.80;;;9.40;1.00;;;;;;5116021;28;20491;-50
2024/02/10 08:23:46;;;;;;;18.40;16.40;;;9.50;1.00;;;;;;5115915;28;20420;-44
2024/02/10 08:26:12;;;;;;;17.37;15.67;;;9.60;1.00;;;;;;5116905;28;20417;-43
2024/02/10 08:28:39;;;;;;;19.70;17.20;;;9.70;1.00;;;;;;5116852;28;20589;-42
2024/02/10 08:31:04;;;;;;;21.03;18.77;;;9.80;1.00;;;;;;5093797;28;20235;-42
2024/02/10 08:33:33;;;;;;;20.10;17.53;;;9.80;1.00;;;;;;5093556;28;20594;-40
2024/02/10 08:35:59;;;;;;;16.17;14.40;;;9.80;1.00;;;;;;5094610;28;20214;-40
2024/02/10 08:38:29;;;;;;;16.87;15.13;;;9.80;1.00;;;;;;5095365;28;20521;-46
2024/02/10 08:40:55;;;;;;;9.50;5.90;;;9.90;1.00;;;;;;5095502;28;20422;-42
2024/02/10 08:43:20;;;;;;;15.87;10.53;;;11.90;14.10;;;;;;5094813;28;20445;-43
2024/02/10 08:45:46;;;;;;;15.47;12.60;;;13.20;1.00;;;;;;5093231;28;20274;-41
2024/02/10 08:48:12;;;;;;;14.40;13.00;;;13.90;1.00;;;;;;5095678;28;21271;-40
2024/02/10 08:50:41;;;;;;;13.97;12.67;;;14.30;99.90;;;;;;5095636;28;20168;-44
2024/02/10 08:53:15;;;;;;;15.60;14.03;;;13.80;99.90;;;;;;5095965;28;20415;-43
2024/02/10 08:55:49;;;;;;;16.67;14.97;;;13.10;1.00;;;;;;5095059;28;20770;-41
2024/02/10 08:58:20;;;;;;;15.30;13.90;;;12.40;1.00;;;;;;5064014;28;20434;-42
2024/02/10 09:00:46;;;;;;;15.60;13.40;;;11.90;99.90;;;;;;5079655;28;20474;-42
2024/02/10 09:03:15;;;;;;;15.33;13.80;;;11.50;99.90;;;;;;5095214;28;20438;-41
2024/02/10 09:05:41;;;;;;;15.47;14.00;;;11.30;99.90;;;;;;5096073;28;20423;-41
2024/02/10 09:08:07;;;;;;;15.93;14.30;;;11.10;99.90;;;;;;5095043;28;20540;-41
2024/02/10 09:10:33;;;;;;;14.77;13.27;;;10.80;99.90;;;;;;5094534;28;20439;-41
2024/02/10 09:12:59;;;;;;;15.13;13.53;;;10.70;1.00;;;;;;5095153;28;20429;-40
2024/02/10 09:15:26;;;;;;;17.90;16.10;;;10.50;1.00;;;;;;5093424;28;20227;-41
2024/02/10 09:17:51;;;;;;;16.47;14.80;;;10.40;1.00;;;;;;5095038;28;20871;-41
2024/02/10 09:20:17;;;;;;;14.50;13.10;;;10.40;1.00;;;;;;5093860;28;20434;-42
2024/02/10 09:22:43;;;;;;;16.43;14.83;;;10.30;1.00;;;;;;5092921;28;20340;-41
2024/02/10 09:25:10;;;;;;;16.53;14.73;;;10.30;1.00;;;;;;5075007;28;20622;-42
2024/02/10 09:27:35;;;;;;;14.53;13.10;;;10.30;1.00;;;;;;5091251;28;20892;-40
2024/02/10 09:30:03;;;;;;;17.53;15.50;;;10.10;1.00;;;;;;5091379;28;20489;-42
2024/02/10 09:32:28;;;;;;;14.83;13.43;;;10.00;1.00;;;;;;5076720;28;20644;-44
2024/02/10 09:34:55;;;;;;;15.80;14.13;;;10.00;1.00;;;;;;5090789;28;20426;-45
2024/02/10 09:37:20;;;;;;;16.33;14.70;;;10.00;1.00;;;;;;5091783;28;20191;-39
2024/02/10 09:39:46;;;;;;;15.83;14.23;;;9.90;1.00;;;;;;5090804;28;20434;-41
2024/02/10 09:42:22;;;;;;;16.90;15.20;;;9.80;1.00;;;;;;5091172;28;20558;-41
2024/02/10 09:44:49;;;;;;;16.07;14.37;;;9.80;1.00;;;;;;5093376;28;20410;-40
2024/02/10 09:47:16;;;;;;;20.13;16.03;;;9.80;1.00;;;;;;5092175;28;20414;-43
2024/02/10 09:49:42;;;;;;;8.60;7.77;;;9.70;1.00;;;;;;5092448;28;20425;-42
2024/02/10 09:52:10;;;;;;;16.17;11.17;;;10.00;1.00;;;;;;5091134;28;20454;-44
2024/02/10 09:54:36;;;;;;;11.23;9.93;;;11.00;1.00;;;;;;5092895;28;20513;-44
2024/02/10 09:57:03;;;;;;;11.17;9.97;;;11.40;1.00;;;;;;5093364;28;20502;-42
2024/02/10 09:59:30;;;;;;;10.23;9.33;;;12.00;1.00;;;;;;5094401;28;20429;-46
2024/02/10 10:01:59;;;;;;;14.53;13.13;;;12.50;1.00;;;;;;5096005;28;20429;-44
2024/02/10 10:04:25;;;;;;;12.90;11.70;;;12.60;1.00;;;;;;5092922;28;20794;-44
2024/02/10 10:06:51;;;;;;;12.70;11.43;;;12.50;99.90;;;;;;5093647;28;20445;-41
2024/02/10 10:09:19;;;;;;;15.00;13.60;;;12.30;99.90;;;;;;5093563;28;20876;-43
2024/02/10 10:11:45;;;;;;;14.13;12.83;;;12.00;99.90;;;;;;5094945;28;20638;-41
2024/02/10 10:14:16;;;;;;;13.83;12.60;;;11.80;99.90;;;;;;5094470;28;20547;-40
2024/02/10 10:16:56;;;;;;;15.40;14.00;;;11.60;99.90;;;;;;5094885;28;20775;-43
2024/02/10 10:19:22;;;;;;;14.90;13.50;;;11.40;99.90;;;;;;5094181;28;20184;-41
2024/02/10 10:21:49;;;;;;;15.03;13.60;;;11.30;99.90;;;;;;5092796;28;20564;-42
2024/02/10 10:24:15;;;;;;;16.43;14.33;;;11.20;99.90;;;;;;5092938;28;20575;-40
2024/02/10 10:26:42;;;;;;;15.67;14.17;;;11.10;99.90;;;;;;5094785;28;20521;-45
2024/02/10 10:29:10;;;;;;;15.73;14.17;;;11.10;99.90;;;;;;5095713;28;20949;-42
2024/02/10 10:31:37;;;;;;;16.27;14.77;;;11.10;1.00;;;;;;5096736;28;20440;-41
2024/02/10 10:34:05;;;;;;;17.67;16.07;;;11.10;1.00;;;;;;5096251;28;20556;-43
2024/02/10 10:36:31;;;;;;;16.10;14.60;;;11.10;1.00;;;;;;5096341;28;20406;-43
2024/02/10 10:39:02;;;;;;;19.17;15.33;;;11.20;1.00;;;;;;5069905;28;20442;-43
2024/02/10 10:41:28;;;;;;;19.60;17.60;;;11.30;1.00;;;;;;5077295;28;20565;-43
2024/02/10 10:43:55;;;;;;;19.40;17.20;;;11.30;1.00;;;;;;5076785;28;20959;-41
2024/02/10 10:46:20;;;;;;;17.50;15.63;;;11.30;1.00;;;;;;5076798;28;20177;-42
2024/02/10 10:48:49;;;;;;;17.70;15.87;;;11.40;1.00;;;;;;5076960;28;20547;-43
2024/02/10 10:51:17;;;;;;;17.07;15.10;;;11.50;1.00;;;;;;5078209;28;20169;-42
2024/02/10 10:53:45;;;;;;;16.87;15.17;;;11.60;1.00;;;;;;5078105;28;20423;-41
2024/02/10 10:56:14;;;;;;;16.17;14.50;;;11.60;1.00;;;;;;5077947;28;20525;-42
2024/02/10 10:58:46;;;;;;;17.50;15.70;;;11.70;1.00;;;;;;5059997;28;20431;-41
2024/02/10 11:01:15;;;;;;;16.53;14.83;;;11.80;1.00;;;;;;5076747;28;20600;-42
2024/02/10 11:03:44;;;;;;;18.30;16.37;;;11.80;1.00;;;;;;5075377;28;20446;-42
2024/02/10 11:06:11;;;;;;;16.30;14.70;;;11.90;1.00;;;;;;5076211;28;20478;-42
2024/02/10 11:08:39;;;;;;;14.63;13.13;;;12.00;1.00;;;;;;5074794;28;20677;-41
2024/02/10 11:11:08;;;;;;;13.10;11.73;;;12.00;99.90;;;;;;5073760;28;20427;-41
2024/02/10 11:13:35;;;;;;;14.67;11.33;;;12.10;99.90;;;;;;5076287;28;20753;-41
2024/02/10 11:16:12;;;;;;;12.40;10.83;;;12.10;99.90;;;;;;5075402;28;20495;-40
2024/02/10 11:18:38;;;;;;;11.60;10.50;;;12.00;99.90;;;;;;5076111;28;20427;-42
2024/02/10 11:21:10;;;;;;;9.77;8.80;;;12.00;99.90;;;;;;5076168;28;20427;-42
2024/02/10 11:23:37;;;;;;;11.03;8.40;;;12.10;99.90;;;;;;5077836;28;20431;-42
2024/02/10 11:26:05;;;;;;;7.90;7.10;;;12.10;99.90;;;;;;5076379;28;20876;-42
2024/02/10 11:28:32;;;;;;;8.77;7.90;;;12.20;99.90;;;;;;5076789;28;20475;-43
2024/02/10 11:31:08;;;;;;;9.30;8.40;;;12.30;99.90;;;;;;5075772;28;20481;-40
2024/02/10 11:33:34;;;;;;;11.33;8.90;;;12.40;99.90;;;;;;5075519;28;20419;-44
2024/02/10 11:35:59;;;;;;;9.80;8.43;;;12.40;3.90;;;;;;5074018;28;20434;-44
2024/02/10 11:38:25;;;;;;;8.60;7.47;;;12.40;69.10;;;;;;5072984;28;20181;-41
2024/02/10 11:40:50;;;;;;;9.90;7.53;;;12.50;1.00;;;;;;5073705;28;20180;-44
2024/02/10 11:43:16;;;;;;;7.80;7.10;;;12.50;1.00;;;;;;5076501;28;20271;-42
2024/02/10 11:45:45;;;;;;;9.00;7.23;;;12.50;1.00;;;;;;5075560;28;20176;-42
2024/02/10 11:48:10;;;;;;;7.53;6.73;;;12.60;1.00;;;;;;5076806;28;20574;-42
2024/02/10 11:50:44;;;;;;;8.90;7.87;;;12.60;1.00;;;;;;5075897;28;20411;-44
2024/02/10 11:53:14;;;;;;;8.90;8.00;;;12.50;99.90;;;;;;5075784;28;20176;-42
2024/02/10 11:55:47;;;;;;;9.97;9.00;;;12.40;1.00;;;;;;5076721;28;20458;-43
2024/02/10 11:58:18;;;;;;;12.20;10.73;;;12.40;1.00;;;;;;5075426;28;20434;-44
2024/02/10 12:00:47;;;;;;;11.50;10.40;;;12.40;7.70;;;;;;5074617;28;20725;-41
2024/02/10 12:03:19;;;;;;;9.60;8.53;;;12.50;76.50;;;;;;5073983;28;20821;-43
2024/02/10 12:05:46;;;;;;;12.87;11.57;;;12.60;67.20;;;;;;5075387;28;20903;-45
2024/02/10 12:08:11;;;;;;;12.63;11.30;;;12.70;1.00;;;;;;5075739;28;20490;-43
2024/02/10 12:10:38;;;;;;;11.10;10.10;;;12.70;1.00;;;;;;5076474;28;21021;-43
2024/02/10 12:13:05;;;;;;;10.83;9.67;;;12.80;1.00;;;;;;5075041;28;20184;-40
2024/02/10 12:15:31;;;;;;;13.93;12.47;;;13.00;1.00;;;;;;5075351;28;20403;-44
2024/02/10 12:18:01;;;;;;;12.70;11.03;;;13.00;1.00;;;;;;5075173;28;20419;-41
2024/02/10 12:20:26;;;;;;;13.70;12.40;;;13.00;1.00;;;;;;5075301;28;20526;-43
2024/02/10 12:22:53;;;;;;;12.37;11.10;;;13.00;1.00;;;;;;5076265;28;20522;-41
2024/02/10 12:25:22;;;;;;;12.43;10.60;;;13.00;99.90;;;;;;5076238;28;20212;-42
2024/02/10 12:27:49;;;;;;;11.97;10.77;;;13.20;99.90;;;;;;5075207;28;20990;-42
2024/02/10 12:30:15;;;;;;;13.00;10.77;;;13.50;1.00;;;;;;5075418;28;20816;-41
2024/02/10 12:32:41;;;;;;;10.70;9.70;;;13.80;99.90;;;;;;5073389;28;20439;-41
2024/02/10 12:35:10;;;;;;;12.70;11.57;;;14.10;34.40;;;;;;5075022;28;20531;-43
2024/02/10 12:37:35;;;;;;;10.93;9.93;;;14.20;99.90;;;;;;5074968;28;20574;-42
2024/02/10 12:40:03;;;;;;;9.87;8.97;;;14.40;1.00;;;;;;5074151;28;20453;-44
2024/02/10 12:42:30;;;;;;;11.27;10.10;;;14.70;1.00;;;;;;5074261;28;20177;-40
2024/02/10 12:44:55;;;;;;;10.70;9.17;;;15.00;99.90;;;;;;5074695;28;20880;-40
2024/02/10 12:47:21;;;;;;;12.53;7.90;;;15.30;99.90;;;;;;5073374;28;20833;-44